Main page
METAR-TAF:

METAR-TAF

Airports :

Remada Air Base

Remada, Tunisia

latitude: 32-19N, longitude: 010-24E, elevation: 300 m

Current weather observation

The report was made 18 minutes ago, at 18:00 UTC
Wind 7 kt from the North, varying between Northwest and Northeast
Temperature 21°C
Humidity 56%
Pressure 1013 hPa

METAR: DTTD 131800Z AUTO 01007KT 320V050 NCD 21/12 Q1013

Time: 19:18 (18:18 UTC)


TAF: missing

Weather observations and forecasts of more than 4000 airports (METAR and TAF reports).

The available stations are represented by yellow and red dots on the map.

Hover mouse over dot to see the name of the station.

Then click to see weather observations and forecasts.

To change the map : click on the green buttons with a black cross to zoom in, on the green button with a dash to zoom out, or on the green arrows for adjacent maps.


METAR-TAF: